createdAt,value
2022-09-28T00:00:31.776Z,7.30
2022-09-28T00:02:58.242Z,7.28
2022-09-28T00:05:28.737Z,7.25
2022-09-28T00:07:56.679Z,7.25
2022-09-28T00:10:23.136Z,7.24
2022-09-28T00:12:50.897Z,7.20
2022-09-28T00:15:18.048Z,7.17
2022-09-28T00:17:44.921Z,7.16
2022-09-28T00:20:12.030Z,7.13
2022-09-28T00:22:39.018Z,7.12
2022-09-28T00:25:06.940Z,7.09
2022-09-28T00:27:33.419Z,7.07
2022-09-28T00:30:00.110Z,7.05
2022-09-28T00:32:26.875Z,7.04
2022-09-28T00:34:53.429Z,7.02
2022-09-28T00:37:20.581Z,7.01
2022-09-28T00:39:48.628Z,6.99
2022-09-28T00:42:23.726Z,6.98
2022-09-28T00:44:57.186Z,6.95
2022-09-28T00:47:46.564Z,6.92
2022-09-28T00:50:29.029Z,6.89
2022-09-28T00:52:58.284Z,6.87
2022-09-28T00:55:42.566Z,6.85
2022-09-28T00:58:12.118Z,6.81
2022-09-28T01:00:41.066Z,6.78
2022-09-28T01:03:09.340Z,6.76
2022-09-28T01:05:36.991Z,6.74
2022-09-28T01:08:04.544Z,6.73
2022-09-28T01:10:31.536Z,6.73
2022-09-28T01:12:59.253Z,6.73
2022-09-28T01:15:29.163Z,6.73
2022-09-28T01:18:05.660Z,6.76
2022-09-28T01:20:55.116Z,6.78
2022-09-28T01:23:30.714Z,6.81
2022-09-28T01:26:25.074Z,6.83
2022-09-28T01:29:03.203Z,6.85
2022-09-28T01:31:33.716Z,6.87
2022-09-28T01:34:15.192Z,6.87
2022-09-28T01:36:50.792Z,6.86
2022-09-28T01:39:27.525Z,6.87
2022-09-28T01:41:56.663Z,6.87
2022-09-28T01:44:27.267Z,6.86
2022-09-28T01:46:56.290Z,6.83
2022-09-28T01:49:30.902Z,6.80
2022-09-28T01:52:04.722Z,6.74
2022-09-28T01:54:38.158Z,6.71
2022-09-28T01:57:26.803Z,6.68
2022-09-28T02:00:01.229Z,6.69
2022-09-28T02:02:34.006Z,6.65
2022-09-28T02:05:04.387Z,6.63
2022-09-28T02:08:13.380Z,6.60
2022-09-28T02:10:49.396Z,6.63
2022-09-28T02:13:24.958Z,6.63
2022-09-28T02:15:58.543Z,6.64
2022-09-28T02:18:25.110Z,6.63
2022-09-28T02:21:13.219Z,6.60
2022-09-28T02:23:45.421Z,6.58
2022-09-28T02:26:16.667Z,6.57
2022-09-28T02:28:43.218Z,6.56
2022-09-28T02:31:09.854Z,6.57
2022-09-28T02:33:40.695Z,6.54
2022-09-28T02:36:07.343Z,6.53
2022-09-28T02:38:33.779Z,6.52
2022-09-28T02:41:39.786Z,6.49
2022-09-28T02:44:24.943Z,6.48
2022-09-28T02:47:05.853Z,6.47
2022-09-28T02:50:06.674Z,6.48
2022-09-28T02:52:42.249Z,6.46
2022-09-28T02:55:30.586Z,6.47
2022-09-28T02:58:21.913Z,6.48
2022-09-28T03:01:06.988Z,6.48
2022-09-28T03:03:45.349Z,6.49
2022-09-28T03:06:19.152Z,6.48
2022-09-28T03:08:58.176Z,6.47
2022-09-28T03:11:31.647Z,6.45
2022-09-28T03:13:58.373Z,6.44
2022-09-28T03:16:25.118Z,6.41
2022-09-28T03:18:51.701Z,6.36
2022-09-28T03:21:18.342Z,6.34
2022-09-28T03:23:44.972Z,6.36
2022-09-28T03:26:12.731Z,6.36
2022-09-28T03:28:39.491Z,6.32
2022-09-28T03:31:06.220Z,6.28
2022-09-28T03:33:32.789Z,6.24
2022-09-28T03:35:59.335Z,6.23
2022-09-28T03:38:25.781Z,6.22
2022-09-28T03:40:57.337Z,6.20
2022-09-28T03:43:24.911Z,6.18
2022-09-28T03:46:01.713Z,6.21
2022-09-28T03:48:32.743Z,6.21
2022-09-28T03:51:02.541Z,6.19
2022-09-28T03:53:32.385Z,6.19
2022-09-28T03:56:04.471Z,6.18
2022-09-28T03:58:31.089Z,6.15
2022-09-28T04:01:05.412Z,6.13
2022-09-28T04:03:32.172Z,6.09
2022-09-28T04:05:58.987Z,6.06
2022-09-28T04:08:25.653Z,6.02
2022-09-28T04:10:52.228Z,5.97
2022-09-28T04:13:18.781Z,5.95
2022-09-28T04:15:53.481Z,5.94
2022-09-28T04:18:20.067Z,5.88
2022-09-28T04:20:48.051Z,5.82
2022-09-28T04:23:15.464Z,5.77
2022-09-28T04:25:42.515Z,5.75
2022-09-28T04:28:28.173Z,5.74
2022-09-28T04:30:54.554Z,5.72
2022-09-28T04:33:20.943Z,5.70
2022-09-28T04:35:47.345Z,5.66
2022-09-28T04:38:13.827Z,5.62
2022-09-28T04:40:40.338Z,5.61
2022-09-28T04:43:06.897Z,5.59
2022-09-28T04:45:33.389Z,5.55
2022-09-28T04:47:59.982Z,5.53
2022-09-28T04:50:26.514Z,5.49
2022-09-28T04:52:53.001Z,5.48
2022-09-28T04:55:20.555Z,5.47
2022-09-28T04:57:47.107Z,5.44
2022-09-28T05:00:14.182Z,5.41
2022-09-28T05:02:42.886Z,5.41
2022-09-28T05:05:09.393Z,5.38
2022-09-28T05:07:35.909Z,5.37
2022-09-28T05:10:02.436Z,5.33
2022-09-28T05:12:28.849Z,5.30
2022-09-28T05:14:56.506Z,5.26
2022-09-28T05:17:23.199Z,5.22
2022-09-28T05:19:49.624Z,5.22
2022-09-28T05:22:16.434Z,5.21
2022-09-28T05:24:42.932Z,5.18
2022-09-28T05:27:09.391Z,5.16
2022-09-28T05:29:35.770Z,5.16
2022-09-28T05:32:02.328Z,5.15
2022-09-28T05:34:29.240Z,5.11
2022-09-28T05:36:55.755Z,5.09
2022-09-28T05:39:22.230Z,5.05
2022-09-28T05:41:49.285Z,5.05
2022-09-28T05:44:15.850Z,5.06
2022-09-28T05:46:42.367Z,5.05
2022-09-28T05:49:08.756Z,5.03
2022-09-28T05:51:35.201Z,5.02
2022-09-28T05:54:05.666Z,5.02
2022-09-28T05:56:32.893Z,5.02
2022-09-28T05:58:59.444Z,5.03
2022-09-28T06:01:25.905Z,5.06
2022-09-28T06:03:52.343Z,5.09
2022-09-28T06:06:18.739Z,5.13
2022-09-28T06:08:46.383Z,5.16
2022-09-28T06:11:12.946Z,5.18
2022-09-28T06:13:42.612Z,5.23
2022-09-28T06:16:15.159Z,5.24
2022-09-28T06:18:42.112Z,5.28
2022-09-28T06:21:10.921Z,5.31
2022-09-28T06:23:39.977Z,5.33
2022-09-28T06:26:06.997Z,5.37
2022-09-28T06:28:33.395Z,5.40
2022-09-28T06:31:01.662Z,5.42
2022-09-28T06:33:28.208Z,5.44
2022-09-28T06:35:54.642Z,5.47
2022-09-28T06:38:22.025Z,5.50
2022-09-28T06:40:48.500Z,5.54
2022-09-28T06:43:15.410Z,5.58
2022-09-28T06:45:43.047Z,5.61
2022-09-28T06:48:11.067Z,5.65
2022-09-28T06:50:40.791Z,5.68
2022-09-28T06:53:12.142Z,5.75
2022-09-28T06:55:42.941Z,5.85
2022-09-28T06:58:15.832Z,5.92
2022-09-28T07:00:42.384Z,6.00
2022-09-28T07:03:14.236Z,6.08
2022-09-28T07:05:43.317Z,6.14
2022-09-28T07:08:10.011Z,6.22
2022-09-28T07:10:41.918Z,6.31
2022-09-28T07:13:15.307Z,6.40
2022-09-28T07:15:48.895Z,6.47
2022-09-28T07:18:15.410Z,6.53
2022-09-28T07:20:52.703Z,6.61
2022-09-28T07:23:20.413Z,6.67
2022-09-28T07:25:49.610Z,6.71
2022-09-28T07:28:17.318Z,6.80
2022-09-28T07:30:44.775Z,6.83
2022-09-28T07:33:14.628Z,6.91
2022-09-28T07:35:42.424Z,7.02
2022-09-28T07:38:10.672Z,7.08
2022-09-28T07:40:55.874Z,7.18
2022-09-28T07:43:22.785Z,7.32
2022-09-28T07:45:54.194Z,7.42
2022-09-28T07:48:22.065Z,7.55
2022-09-28T07:50:51.343Z,7.68
2022-09-28T07:53:22.902Z,7.79
2022-09-28T07:55:53.530Z,7.88
2022-09-28T07:58:20.620Z,7.96
2022-09-28T08:00:49.082Z,7.99
2022-09-28T08:03:22.400Z,8.09
2022-09-28T08:05:49.497Z,8.17
2022-09-28T08:08:16.291Z,8.23
2022-09-28T08:10:46.861Z,8.30
2022-09-28T08:13:15.298Z,8.35
2022-09-28T08:15:42.575Z,8.44
2022-09-28T08:18:09.368Z,8.48
2022-09-28T08:21:01.691Z,8.55
2022-09-28T08:23:28.407Z,8.68
2022-09-28T08:25:54.945Z,8.73
2022-09-28T08:28:23.006Z,8.82
2022-09-28T08:30:50.255Z,8.83
2022-09-28T08:33:22.645Z,8.88
2022-09-28T08:35:57.693Z,8.94
2022-09-28T08:38:29.458Z,9.07
2022-09-28T08:41:14.692Z,9.15
2022-09-28T08:44:02.437Z,9.21
2022-09-28T08:46:37.088Z,9.26
2022-09-28T08:49:24.553Z,9.36
2022-09-28T08:52:03.377Z,9.42
2022-09-28T08:54:48.829Z,9.46
2022-09-28T08:57:27.622Z,9.56
2022-09-28T08:59:59.709Z,9.58
2022-09-28T09:02:36.127Z,9.69
2022-09-28T09:05:06.217Z,9.74
2022-09-28T09:08:02.353Z,9.79
2022-09-28T09:10:43.260Z,9.84
2022-09-28T09:13:31.497Z,9.87
2022-09-28T09:16:08.810Z,10.02
2022-09-28T09:18:48.302Z,10.08
2022-09-28T09:21:26.890Z,10.15
2022-09-28T09:23:56.108Z,10.12
2022-09-28T09:26:43.439Z,10.14
2022-09-28T09:29:16.972Z,10.26
2022-09-28T09:31:59.742Z,10.47
2022-09-28T09:35:05.644Z,10.58
2022-09-28T09:38:09.354Z,10.60
2022-09-28T09:40:46.585Z,10.62
2022-09-28T09:43:38.487Z,10.55
2022-09-28T09:46:15.071Z,10.55
2022-09-28T09:49:17.655Z,10.69
2022-09-28T09:51:48.347Z,10.85
2022-09-28T09:54:29.092Z,11.06
2022-09-28T09:57:10.554Z,11.05
2022-09-28T09:59:41.540Z,10.85
2022-09-28T10:02:26.881Z,10.89
2022-09-28T10:05:01.837Z,10.89
2022-09-28T10:07:45.719Z,10.81
2022-09-28T10:10:20.522Z,10.91
2022-09-28T10:12:51.059Z,11.29
2022-09-28T10:15:31.469Z,11.51
2022-09-28T10:18:03.208Z,11.80
2022-09-28T10:20:34.610Z,11.92
2022-09-28T10:23:04.895Z,12.17
2022-09-28T10:25:37.332Z,12.39
2022-09-28T10:28:06.305Z,12.53
2022-09-28T10:30:41.911Z,12.58
2022-09-28T10:33:31.614Z,12.30
2022-09-28T10:36:01.115Z,12.29
2022-09-28T10:38:29.665Z,12.33
2022-09-28T10:41:04.106Z,12.45
2022-09-28T10:43:34.664Z,12.61
2022-09-28T10:46:10.426Z,12.81
2022-09-28T10:49:01.045Z,12.99
2022-09-28T10:51:44.290Z,13.37
2022-09-28T10:54:28.753Z,13.68
2022-09-28T10:56:56.927Z,13.59
2022-09-28T10:59:29.332Z,13.27
2022-09-28T11:01:59.399Z,13.36
2022-09-28T11:04:34.226Z,13.25
2022-09-28T11:07:01.776Z,13.41
2022-09-28T11:09:31.383Z,13.48
2022-09-28T11:12:03.418Z,13.27
2022-09-28T11:14:41.085Z,13.11
2022-09-28T11:17:29.970Z,13.11
2022-09-28T11:20:02.288Z,13.42
2022-09-28T11:22:36.348Z,13.69
2022-09-28T11:25:32.111Z,13.99
2022-09-28T11:28:01.795Z,14.29
2022-09-28T11:30:52.898Z,14.57
2022-09-28T11:33:23.190Z,14.80
2022-09-28T11:36:00.644Z,14.92
2022-09-28T11:38:55.207Z,15.13
2022-09-28T11:41:38.371Z,15.26
2022-09-28T11:44:23.198Z,15.61
2022-09-28T11:47:04.777Z,15.75
2022-09-28T11:49:49.512Z,15.74
2022-09-28T11:52:27.954Z,15.75
2022-09-28T11:54:59.924Z,15.68
2022-09-28T11:57:34.220Z,15.20
2022-09-28T12:00:06.461Z,15.00
2022-09-28T12:02:39.577Z,14.90
2022-09-28T12:05:17.087Z,14.87
2022-09-28T12:07:52.172Z,14.73
2022-09-28T12:10:29.855Z,14.61
2022-09-28T12:13:26.618Z,14.42
2022-09-28T12:16:27.213Z,14.36
2022-09-28T12:18:54.915Z,14.43
2022-09-28T12:21:24.464Z,14.57
2022-09-28T12:23:56.092Z,14.54
2022-09-28T12:26:38.005Z,14.55
2022-09-28T12:29:20.877Z,14.61
2022-09-28T12:31:57.909Z,14.36
2022-09-28T12:34:24.398Z,14.05
2022-09-28T12:37:08.842Z,13.77
2022-09-28T12:40:02.691Z,13.46
2022-09-28T12:43:01.306Z,13.06
2022-09-28T12:46:07.042Z,12.78
2022-09-28T12:49:03.016Z,12.43
2022-09-28T12:51:42.940Z,12.31
2022-09-28T12:54:46.773Z,12.20
2022-09-28T12:57:31.500Z,12.08
2022-09-28T13:00:02.342Z,12.01
2022-09-28T13:03:07.033Z,11.91
2022-09-28T13:06:01.547Z,11.88
2022-09-28T13:08:53.780Z,11.89
2022-09-28T13:12:03.376Z,11.87
2022-09-28T13:14:53.125Z,11.89
2022-09-28T13:17:48.770Z,11.91
2022-09-28T13:20:32.859Z,11.95
2022-09-28T13:23:33.714Z,12.01
2022-09-28T13:26:22.364Z,12.12
2022-09-28T13:28:51.309Z,12.21
2022-09-28T13:31:31.721Z,12.32
2022-09-28T13:34:01.883Z,12.54
2022-09-28T13:36:28.320Z,12.79
2022-09-28T13:38:57.051Z,13.03
2022-09-28T13:41:38.588Z,13.43
2022-09-28T13:44:11.603Z,13.83
2022-09-28T13:47:03.394Z,14.00
2022-09-28T13:49:45.530Z,14.13
2022-09-28T13:52:34.187Z,14.35
2022-09-28T13:55:26.261Z,14.49
2022-09-28T13:58:00.646Z,14.59
2022-09-28T14:00:50.479Z,14.66
2022-09-28T14:03:56.958Z,14.79
2022-09-28T14:06:27.759Z,14.81
2022-09-28T14:09:12.452Z,14.78
2022-09-28T14:11:44.013Z,14.84
2022-09-28T14:14:16.404Z,14.80
2022-09-28T14:16:43.718Z,14.73
2022-09-28T14:19:33.199Z,14.56
2022-09-28T14:22:26.205Z,14.36
2022-09-28T14:25:20.104Z,14.08
2022-09-28T14:28:40.318Z,13.80
2022-09-28T14:31:14.228Z,13.61
2022-09-28T14:33:42.881Z,13.46
2022-09-28T14:36:46.253Z,13.39
2022-09-28T14:39:50.378Z,13.25
2022-09-28T14:42:25.231Z,13.18
2022-09-28T14:45:05.238Z,13.06
2022-09-28T14:47:44.823Z,12.99
2022-09-28T14:50:25.283Z,12.99
2022-09-28T14:52:55.204Z,12.89
2022-09-28T14:55:31.863Z,12.75
2022-09-28T14:57:59.388Z,12.61
2022-09-28T15:00:30.291Z,12.55
2022-09-28T15:03:02.506Z,12.47
2022-09-28T15:05:43.923Z,12.39
2022-09-28T15:08:11.944Z,12.39
2022-09-28T15:10:45.467Z,12.34
2022-09-28T15:13:19.979Z,12.34
2022-09-28T15:15:59.523Z,12.35
2022-09-28T15:18:53.564Z,12.31
2022-09-28T15:21:21.450Z,12.34
2022-09-28T15:23:48.049Z,12.33
2022-09-28T15:26:28.437Z,12.30
2022-09-28T15:28:55.639Z,12.30
2022-09-28T15:31:26.187Z,12.30
2022-09-28T15:34:12.118Z,12.26
2022-09-28T15:36:41.167Z,12.20
2022-09-28T15:39:20.976Z,12.19
2022-09-28T15:41:50.718Z,12.19
2022-09-28T15:44:24.239Z,12.20
2022-09-28T15:47:03.208Z,12.17
2022-09-28T15:49:39.106Z,12.09
2022-09-28T15:52:06.033Z,12.09
2022-09-28T15:54:41.617Z,12.03
2022-09-28T15:57:29.397Z,11.96
2022-09-28T15:59:59.474Z,12.00
2022-09-28T16:02:27.282Z,11.98
2022-09-28T16:04:56.643Z,12.03
2022-09-28T16:07:25.020Z,12.05
2022-09-28T16:10:05.175Z,12.12
2022-09-28T16:12:37.745Z,12.15
2022-09-28T16:15:12.124Z,12.18
2022-09-28T16:17:38.701Z,12.19
2022-09-28T16:20:20.939Z,12.20
2022-09-28T16:22:47.902Z,12.20
2022-09-28T16:25:23.858Z,12.20
2022-09-28T16:27:52.710Z,12.24
2022-09-28T16:30:32.411Z,12.33
2022-09-28T16:33:01.943Z,12.33
2022-09-28T16:35:48.909Z,12.24
2022-09-28T16:38:17.312Z,12.20
2022-09-28T16:40:54.698Z,12.20
2022-09-28T16:43:27.687Z,12.23
2022-09-28T16:45:59.874Z,12.25
2022-09-28T16:48:28.884Z,12.25
2022-09-28T16:50:56.352Z,12.25
2022-09-28T16:53:42.564Z,12.17
2022-09-28T16:56:09.814Z,12.08
2022-09-28T16:58:36.565Z,12.01
2022-09-28T17:01:03.285Z,11.93
2022-09-28T17:03:29.975Z,11.86
2022-09-28T17:05:56.707Z,11.76
2022-09-28T17:08:24.811Z,11.68
2022-09-28T17:13:47.129Z,11.54
2022-09-28T17:16:28.202Z,11.48
2022-09-28T17:19:19.173Z,11.42
2022-09-28T17:21:46.607Z,11.35
2022-09-28T17:24:15.808Z,11.29
2022-09-28T17:26:44.316Z,11.25
2022-09-28T17:29:14.619Z,11.20
2022-09-28T17:31:45.997Z,11.12
2022-09-28T17:34:15.962Z,11.05
2022-09-28T17:36:43.937Z,10.97
2022-09-28T17:39:15.913Z,10.92
2022-09-28T17:41:42.418Z,10.88
2022-09-28T17:44:09.182Z,10.79
2022-09-28T17:46:39.373Z,10.70
2022-09-28T17:49:07.645Z,10.61
2022-09-28T17:51:37.601Z,10.59
2022-09-28T17:54:06.513Z,10.57
2022-09-28T17:56:33.391Z,10.51
2022-09-28T17:59:05.804Z,10.46
2022-09-28T18:01:34.476Z,10.40
2022-09-28T18:04:03.407Z,10.39
2022-09-28T18:06:32.399Z,10.33
2022-09-28T18:08:59.253Z,10.27
2022-09-28T18:11:26.232Z,10.18
2022-09-28T18:13:52.759Z,10.14
2022-09-28T18:16:19.504Z,10.11
2022-09-28T18:18:47.422Z,10.07
2022-09-28T18:21:14.098Z,10.05
2022-09-28T18:23:40.999Z,10.01
2022-09-28T18:26:12.935Z,9.98
2022-09-28T18:28:40.063Z,9.92
2022-09-28T18:31:08.650Z,9.89
2022-09-28T18:33:35.479Z,9.87
2022-09-28T18:36:02.566Z,9.82
2022-09-28T18:38:29.130Z,9.76
2022-09-28T18:40:56.430Z,9.74
2022-09-28T18:43:23.497Z,9.74
2022-09-28T18:45:49.944Z,9.71
2022-09-28T18:48:16.820Z,9.67
2022-09-28T18:50:43.357Z,9.64
2022-09-28T18:53:12.480Z,9.60
2022-09-28T18:55:43.456Z,9.58
2022-09-28T18:58:11.356Z,9.52
2022-09-28T19:00:40.301Z,9.44
2022-09-28T19:03:07.718Z,9.40
2022-09-28T19:05:35.070Z,9.40
2022-09-28T19:08:01.809Z,9.39
2022-09-28T19:10:28.296Z,9.28
2022-09-28T19:12:54.758Z,9.25
2022-09-28T19:15:22.593Z,9.25
2022-09-28T19:17:49.955Z,9.23
2022-09-28T19:20:17.429Z,9.22
2022-09-28T19:22:44.397Z,9.21
2022-09-28T19:25:11.101Z,9.22
2022-09-28T19:27:37.590Z,9.17
2022-09-28T19:30:04.410Z,9.13
2022-09-28T19:32:30.924Z,9.11
2022-09-28T19:34:57.645Z,9.10
2022-09-28T19:37:24.120Z,9.09
2022-09-28T19:39:50.552Z,9.07
2022-09-28T19:42:17.151Z,9.06
2022-09-28T19:44:43.885Z,9.04
2022-09-28T19:47:12.129Z,9.01
2022-09-28T19:49:40.353Z,8.94
2022-09-28T19:52:16.073Z,8.87
2022-09-28T19:54:54.298Z,8.84
2022-09-28T19:57:20.909Z,8.83
2022-09-28T19:59:52.036Z,8.78
2022-09-28T20:02:19.195Z,8.70
2022-09-28T20:04:46.305Z,8.63
2022-09-28T20:07:12.827Z,8.56
2022-09-28T20:09:39.896Z,8.54
2022-09-28T20:12:06.462Z,8.58
2022-09-28T20:14:36.518Z,8.57
2022-09-28T20:17:05.998Z,8.56
2022-09-28T20:19:33.524Z,8.54
2022-09-28T20:22:02.654Z,8.49
2022-09-28T20:24:29.544Z,8.50
2022-09-28T20:26:56.003Z,8.51
2022-09-28T20:29:24.308Z,8.47
2022-09-28T20:31:51.731Z,8.44
2022-09-28T20:34:18.186Z,8.44
2022-09-28T20:36:44.623Z,8.41
2022-09-28T20:39:11.366Z,8.38
2022-09-28T20:41:37.877Z,8.36
2022-09-28T20:44:06.556Z,8.32
2022-09-28T20:46:35.017Z,8.30
2022-09-28T20:49:01.595Z,8.29
2022-09-28T20:51:28.113Z,8.24
2022-09-28T20:53:57.184Z,8.21
2022-09-28T20:56:24.848Z,8.21
2022-09-28T20:58:51.966Z,8.19
2022-09-28T21:01:27.294Z,8.15
2022-09-28T21:03:56.132Z,8.16
2022-09-28T21:06:25.503Z,8.15
2022-09-28T21:08:52.650Z,8.11
2022-09-28T21:11:22.227Z,8.08
2022-09-28T21:13:53.228Z,8.07
2022-09-28T21:16:19.738Z,8.06
2022-09-28T21:18:47.181Z,8.02
2022-09-28T21:21:15.819Z,7.96
2022-09-28T21:23:45.138Z,7.89
2022-09-28T21:26:15.925Z,7.86
2022-09-28T21:28:44.750Z,7.83
2022-09-28T21:31:12.819Z,7.82
2022-09-28T21:33:39.369Z,7.78
2022-09-28T21:36:07.294Z,7.78
2022-09-28T21:38:34.695Z,7.73
2022-09-28T21:41:01.291Z,7.72
2022-09-28T21:43:29.405Z,7.75
2022-09-28T21:45:56.447Z,7.75
2022-09-28T21:48:25.333Z,7.73
2022-09-28T21:50:55.636Z,7.72
2022-09-28T21:53:22.889Z,7.71
2022-09-28T21:55:53.038Z,7.70
2022-09-28T21:58:23.852Z,7.70
2022-09-28T22:00:55.653Z,7.66
2022-09-28T22:03:24.818Z,7.59
2022-09-28T22:05:52.212Z,7.56
2022-09-28T22:08:19.968Z,7.53
2022-09-28T22:10:57.551Z,7.49
2022-09-28T22:13:23.966Z,7.48
2022-09-28T22:15:54.281Z,7.46
2022-09-28T22:18:20.967Z,7.44
2022-09-28T22:20:47.430Z,7.42
2022-09-28T22:23:13.899Z,7.40
2022-09-28T22:25:40.453Z,7.36
2022-09-28T22:28:06.899Z,7.33
2022-09-28T22:30:34.569Z,7.26
2022-09-28T22:33:01.044Z,7.23
2022-09-28T22:35:27.406Z,7.22
2022-09-28T22:37:53.943Z,7.19
2022-09-28T22:40:20.410Z,7.18
2022-09-28T22:42:46.792Z,7.10
2022-09-28T22:45:13.333Z,7.04
2022-09-28T22:47:39.758Z,6.97
2022-09-28T22:50:08.102Z,6.88
2022-09-28T22:52:34.556Z,6.87
2022-09-28T22:55:00.971Z,6.86
2022-09-28T22:57:27.447Z,6.83
2022-09-28T22:59:53.845Z,6.79
2022-09-28T23:02:20.270Z,6.78
2022-09-28T23:04:46.691Z,6.77
2022-09-28T23:07:13.236Z,6.75
2022-09-28T23:09:39.663Z,6.76
2022-09-28T23:12:06.190Z,6.75
2022-09-28T23:14:32.664Z,6.76
2022-09-28T23:16:59.097Z,6.71
2022-09-28T23:19:25.517Z,6.66
2022-09-28T23:21:51.934Z,6.58
2022-09-28T23:24:18.904Z,6.58
2022-09-28T23:26:45.423Z,6.55
2022-09-28T23:29:11.950Z,6.53
2022-09-28T23:31:39.167Z,6.49
2022-09-28T23:34:06.611Z,6.45
2022-09-28T23:36:33.769Z,6.46
2022-09-28T23:39:00.586Z,6.45
2022-09-28T23:41:27.117Z,6.44
2022-09-28T23:43:53.556Z,6.41
2022-09-28T23:46:21.179Z,6.40
2022-09-28T23:48:48.767Z,6.36
2022-09-28T23:51:15.329Z,6.36
2022-09-28T23:53:43.306Z,6.36
2022-09-28T23:56:09.793Z,6.35
2022-09-28T23:58:36.176Z,6.30
